createdAt,value
2018-07-26T00:00:04.621Z,3.00
2018-07-26T00:00:37.710Z,2.97
2018-07-26T00:01:10.789Z,2.70
2018-07-26T00:01:43.895Z,2.65
2018-07-26T00:02:17.007Z,2.85
2018-07-26T00:02:50.078Z,2.55
2018-07-26T00:03:36.007Z,2.83
2018-07-26T00:04:09.079Z,2.90
2018-07-26T00:04:42.140Z,2.70
2018-07-26T00:05:15.207Z,2.60
2018-07-26T00:06:31.665Z,3.15
2018-07-26T00:07:15.899Z,2.62
2018-07-26T00:07:49.031Z,3.10
2018-07-26T00:08:30.563Z,2.72
2018-07-26T00:09:03.651Z,2.80
2018-07-26T00:09:41.081Z,2.95
2018-07-26T00:10:14.460Z,2.90
2018-07-26T00:10:50.336Z,2.75
2018-07-26T00:11:27.133Z,3.20
2018-07-26T00:12:09.006Z,2.65
2018-07-26T00:12:42.088Z,3.08
2018-07-26T00:13:18.979Z,3.03
2018-07-26T00:13:53.016Z,3.08
2018-07-26T00:14:47.278Z,2.80
2018-07-26T00:16:41.166Z,3.10
2018-07-26T00:17:18.469Z,2.85
2018-07-26T00:17:53.834Z,2.70
2018-07-26T00:18:26.958Z,2.90
2018-07-26T00:19:00.048Z,2.92
2018-07-26T00:19:46.964Z,3.65
2018-07-26T00:20:20.001Z,2.90
2018-07-26T00:20:54.733Z,2.80
2018-07-26T00:21:27.802Z,3.05
2018-07-26T00:22:00.839Z,3.00
2018-07-26T00:22:37.706Z,3.00
2018-07-26T00:23:10.817Z,2.90
2018-07-26T00:23:44.878Z,3.00
2018-07-26T00:24:18.765Z,2.83
2018-07-26T00:24:54.324Z,2.78
2018-07-26T00:25:29.989Z,3.10
2018-07-26T00:26:09.141Z,2.70
2018-07-26T00:26:42.193Z,2.78
2018-07-26T00:27:15.276Z,2.87
2018-07-26T00:27:48.358Z,3.20
2018-07-26T00:28:21.434Z,3.25
2018-07-26T00:28:54.529Z,2.95
2018-07-26T00:29:28.346Z,3.10
2018-07-26T00:30:01.429Z,3.15
2018-07-26T00:30:34.460Z,3.10
2018-07-26T00:31:07.509Z,2.95
2018-07-26T00:31:41.496Z,3.53
2018-07-26T00:32:15.364Z,2.85
2018-07-26T00:32:48.414Z,3.25
2018-07-26T00:33:21.487Z,2.80
2018-07-26T00:33:54.515Z,2.83
2018-07-26T00:34:29.933Z,3.15
2018-07-26T00:35:02.974Z,2.95
2018-07-26T00:35:36.808Z,2.70
2018-07-26T00:36:11.865Z,3.22
2018-07-26T00:36:44.932Z,3.05
2018-07-26T00:37:18.017Z,3.17
2018-07-26T00:37:51.598Z,2.83
2018-07-26T00:38:27.870Z,2.90
2018-07-26T00:39:01.866Z,3.50
2018-07-26T00:39:35.696Z,3.53
2018-07-26T00:40:09.934Z,3.28
2018-07-26T00:40:43.200Z,3.10
2018-07-26T00:41:16.275Z,3.12
2018-07-26T00:41:50.969Z,3.30
2018-07-26T00:42:32.100Z,2.92
2018-07-26T00:43:07.066Z,3.20
2018-07-26T00:43:43.081Z,3.25
2018-07-26T00:44:19.172Z,3.47
2018-07-26T00:44:57.206Z,2.92
2018-07-26T00:45:40.290Z,3.37
2018-07-26T00:46:13.426Z,3.10
2018-07-26T00:46:46.481Z,3.10
2018-07-26T00:47:23.571Z,3.25
2018-07-26T00:47:59.386Z,3.17
2018-07-26T00:48:35.517Z,3.05
2018-07-26T00:49:23.296Z,3.28
2018-07-26T00:49:56.833Z,3.20
2018-07-26T00:50:34.926Z,3.10
2018-07-26T00:51:12.266Z,3.30
2018-07-26T00:51:50.467Z,2.97
2018-07-26T00:53:35.804Z,2.97
2018-07-26T00:55:34.048Z,2.90
2018-07-26T00:56:11.601Z,3.40
2018-07-26T00:56:45.161Z,3.35
2018-07-26T00:57:25.408Z,3.22
2018-07-26T00:59:07.839Z,3.08
2018-07-26T00:59:47.841Z,3.15
2018-07-26T01:00:30.913Z,2.95
2018-07-26T01:03:20.549Z,3.40
2018-07-26T01:04:37.806Z,3.12
2018-07-26T01:05:13.920Z,2.60
2018-07-26T01:07:19.423Z,3.20
2018-07-26T01:07:55.714Z,3.30
2018-07-26T01:09:38.160Z,2.92
2018-07-26T01:16:02.920Z,3.20
2018-07-26T01:21:41.740Z,3.15
2018-07-26T03:15:33.766Z,3.15
2018-07-26T03:17:41.853Z,2.40
2018-07-26T03:19:08.044Z,2.60
2018-07-26T03:19:43.145Z,2.80
2018-07-26T03:20:20.692Z,2.80
2018-07-26T03:20:56.732Z,2.40
2018-07-26T03:26:04.505Z,2.90
2018-07-26T03:29:05.389Z,2.50
2018-07-26T03:29:46.461Z,2.30
2018-07-26T03:30:23.672Z,2.75
2018-07-26T03:31:03.185Z,2.10
2018-07-26T03:31:40.861Z,2.50
2018-07-26T03:32:18.111Z,2.50
2018-07-26T03:33:34.666Z,2.30
2018-07-26T03:46:45.398Z,2.20
2018-07-26T03:47:19.424Z,2.30
2018-07-26T03:48:29.159Z,2.50
2018-07-26T03:49:02.848Z,2.60
2018-07-26T04:18:24.835Z,2.50
2018-07-26T04:19:17.012Z,2.80
2018-07-26T05:46:19.359Z,2.83
2018-07-26T05:46:53.156Z,2.80
2018-07-26T05:47:26.187Z,3.28
2018-07-26T05:47:59.229Z,2.60
2018-07-26T05:48:32.259Z,2.87
2018-07-26T05:49:06.052Z,3.17
2018-07-26T05:54:34.770Z,2.75
2018-07-26T05:55:08.579Z,2.90
2018-07-26T05:55:41.612Z,2.87
2018-07-26T05:56:14.636Z,2.47
2018-07-26T05:56:47.668Z,3.20
2018-07-26T05:57:20.704Z,2.85
2018-07-26T05:57:53.728Z,2.37
2018-07-26T05:58:27.515Z,2.80
2018-07-26T05:59:01.317Z,3.22
2018-07-26T05:59:35.123Z,2.92
2018-07-26T06:03:55.724Z,2.87
2018-07-26T06:04:29.551Z,2.80
2018-07-26T06:05:02.604Z,2.72
2018-07-26T06:13:14.047Z,2.90
2018-07-26T06:15:24.640Z,3.00
2018-07-26T06:19:49.065Z,2.47
2018-07-26T06:20:22.875Z,3.25
2018-07-26T06:20:56.668Z,3.33
2018-07-26T06:21:29.715Z,2.83
2018-07-26T06:22:03.513Z,2.87
2018-07-26T06:22:37.328Z,3.12
2018-07-26T06:25:22.704Z,2.90
2018-07-26T06:25:55.746Z,2.65
2018-07-26T06:26:28.783Z,2.80
2018-07-26T06:27:01.829Z,2.80
2018-07-26T06:27:34.868Z,3.28
2018-07-26T06:28:07.938Z,2.70
2018-07-26T06:29:14.245Z,3.08
2018-07-26T06:29:47.265Z,2.90
2018-07-26T06:30:20.296Z,2.83
2018-07-26T06:30:53.340Z,3.03
2018-07-26T06:31:27.144Z,3.00
2018-07-26T06:32:00.174Z,2.95
2018-07-26T06:32:33.225Z,3.00
2018-07-26T06:33:06.276Z,2.90
2018-07-26T06:33:39.468Z,2.70
2018-07-26T06:34:12.336Z,2.80
2018-07-26T06:34:45.364Z,2.65
2018-07-26T06:35:18.390Z,3.17
2018-07-26T06:35:51.424Z,2.67
2018-07-26T06:36:24.456Z,3.58
2018-07-26T06:36:57.507Z,2.87
2018-07-26T06:37:30.536Z,2.95
2018-07-26T06:38:03.604Z,2.85
2018-07-26T06:38:36.636Z,2.87
2018-07-26T06:39:09.669Z,2.80
2018-07-26T06:39:42.938Z,2.97
2018-07-26T06:47:54.324Z,3.00
2018-07-26T06:51:12.220Z,2.97
2018-07-26T06:51:46.055Z,3.20
2018-07-26T06:52:19.103Z,2.95
2018-07-26T06:52:52.146Z,2.80
2018-07-26T07:00:27.866Z,3.00
2018-07-26T07:01:00.876Z,2.70
2018-07-26T07:13:36.400Z,3.20
2018-07-26T07:14:09.453Z,3.00
2018-07-26T07:14:42.480Z,2.97
2018-07-26T07:15:16.304Z,3.20
2018-07-26T07:15:49.339Z,2.55
2018-07-26T07:21:16.564Z,2.90
2018-07-26T07:21:49.615Z,3.20
2018-07-26T07:22:22.644Z,2.85
2018-07-26T07:22:55.710Z,2.43
2018-07-26T07:23:28.731Z,2.80
2018-07-26T07:24:01.771Z,2.60
2018-07-26T07:28:57.224Z,2.95
2018-07-26T07:29:31.035Z,2.80
2018-07-26T07:30:04.082Z,3.17
2018-07-26T07:30:37.881Z,2.72
2018-07-26T07:31:11.683Z,2.97
2018-07-26T07:31:44.727Z,3.42
2018-07-26T07:32:19.293Z,2.87
2018-07-26T07:32:52.352Z,3.00
2018-07-26T07:33:25.409Z,2.78
2018-07-26T07:33:59.217Z,3.08
2018-07-26T07:34:32.254Z,3.40
2018-07-26T07:35:05.283Z,2.90
2018-07-26T07:35:38.312Z,3.00
2018-07-26T07:36:12.134Z,3.50
2018-07-26T07:36:45.180Z,2.95
2018-07-26T07:37:18.241Z,2.90
2018-07-26T07:37:51.303Z,2.78
2018-07-26T07:38:24.360Z,2.95
2018-07-26T07:38:57.403Z,3.20
2018-07-26T07:39:30.439Z,3.33
2018-07-26T07:40:03.513Z,2.95
2018-07-26T07:40:36.546Z,3.30
2018-07-26T07:41:09.601Z,3.60
2018-07-26T07:41:43.410Z,2.78
2018-07-26T07:42:16.432Z,2.85
2018-07-26T07:42:49.488Z,3.00
2018-07-26T07:43:22.541Z,3.03
2018-07-26T07:43:55.597Z,2.87
2018-07-26T07:44:28.636Z,3.20
2018-07-26T07:45:01.677Z,2.65
2018-07-26T07:45:34.716Z,2.75
2018-07-26T07:46:07.786Z,3.30
2018-07-26T07:46:41.633Z,2.90
2018-07-26T07:47:14.697Z,2.90
2018-07-26T07:47:47.682Z,3.03
2018-07-26T07:48:20.739Z,2.78
2018-07-26T07:48:53.768Z,2.80
2018-07-26T07:49:27.605Z,2.70
2018-07-26T07:50:01.401Z,2.83
2018-07-26T07:50:35.200Z,2.93
2018-07-26T07:51:08.242Z,2.90
2018-07-26T07:51:42.035Z,2.97
2018-07-26T07:52:15.059Z,3.00
2018-07-26T07:52:48.147Z,3.20
2018-07-26T07:53:21.940Z,2.63
2018-07-26T07:53:54.980Z,2.63
2018-07-26T07:54:28.031Z,2.80
2018-07-26T07:55:01.089Z,3.00
2018-07-26T07:55:34.892Z,2.67
2018-07-26T07:56:08.688Z,2.80
2018-07-26T07:56:41.732Z,3.57
2018-07-26T07:57:14.772Z,3.27
2018-07-26T07:57:47.791Z,2.87
2018-07-26T07:58:21.612Z,2.83
2018-07-26T07:58:54.663Z,2.67
2018-07-26T07:59:28.499Z,3.03
2018-07-26T08:00:01.504Z,3.10
2018-07-26T08:00:34.547Z,2.80
2018-07-26T08:01:07.581Z,2.73
2018-07-26T08:01:41.379Z,3.00
2018-07-26T08:02:15.629Z,2.90
2018-07-26T08:02:48.655Z,3.20
2018-07-26T08:03:21.720Z,2.70
2018-07-26T08:03:55.523Z,3.27
2018-07-26T08:04:29.319Z,3.20
2018-07-26T08:05:02.396Z,2.80
2018-07-26T08:05:36.177Z,2.73
2018-07-26T08:06:09.988Z,2.97
2018-07-26T08:06:43.065Z,2.97
2018-07-26T08:07:16.068Z,2.70
2018-07-26T08:07:49.099Z,2.67
2018-07-26T08:08:22.907Z,3.10
2018-07-26T08:08:55.957Z,3.37
2018-07-26T08:09:29.749Z,2.70
2018-07-26T08:10:03.547Z,2.83
2018-07-26T08:10:37.352Z,2.83
2018-07-26T08:11:10.426Z,3.07
2018-07-26T08:11:43.432Z,2.60
2018-07-26T08:12:16.471Z,2.90
2018-07-26T08:12:50.299Z,2.90
2018-07-26T08:13:23.359Z,2.90
2018-07-26T08:13:56.422Z,2.93
2018-07-26T08:14:30.248Z,2.83
2018-07-26T08:15:03.295Z,3.03
2018-07-26T08:15:36.347Z,2.90
2018-07-26T08:16:09.383Z,2.90
2018-07-26T08:16:42.418Z,2.70
2018-07-26T08:17:15.453Z,3.43
2018-07-26T08:17:48.499Z,2.83
2018-07-26T08:18:21.569Z,2.80
2018-07-26T08:18:54.639Z,2.90
2018-07-26T08:19:27.696Z,2.73
2018-07-26T08:20:00.740Z,2.60
2018-07-26T08:20:34.546Z,2.60
2018-07-26T08:21:07.584Z,2.83
2018-07-26T08:21:40.648Z,3.13
2018-07-26T08:22:13.723Z,3.00
2018-07-26T08:22:46.767Z,3.20
2018-07-26T08:23:19.811Z,2.90
2018-07-26T08:23:53.598Z,2.63
2018-07-26T08:24:27.400Z,2.30
2018-07-26T08:25:01.188Z,3.13
2018-07-26T08:25:34.991Z,3.13
2018-07-26T08:26:08.040Z,2.40
2018-07-26T08:26:41.056Z,3.17
2018-07-26T08:27:14.120Z,2.50
2018-07-26T08:27:47.167Z,2.87
2018-07-26T08:28:20.226Z,2.73
2018-07-26T08:28:53.274Z,2.67
2018-07-26T08:29:26.382Z,3.20
2018-07-26T08:30:00.119Z,2.67
2018-07-26T08:30:33.148Z,2.90
2018-07-26T08:31:06.212Z,3.07
2018-07-26T08:31:39.265Z,2.90
2018-07-26T08:32:12.321Z,3.03
2018-07-26T08:32:45.358Z,3.27
2018-07-26T08:33:18.394Z,2.60
2018-07-26T08:33:51.467Z,2.97
2018-07-26T08:34:24.521Z,2.50
2018-07-26T08:34:57.598Z,2.70
2018-07-26T08:35:31.377Z,2.60
2018-07-26T08:36:04.417Z,2.90
2018-07-26T08:36:37.444Z,2.20
2018-07-26T08:37:10.496Z,2.70
2018-07-26T08:37:44.288Z,2.70
2018-07-26T08:38:18.090Z,2.70
2018-07-26T08:38:51.155Z,2.80
2018-07-26T08:39:24.958Z,2.70
2018-07-26T08:39:57.991Z,2.83
2018-07-26T08:40:31.065Z,2.60
2018-07-26T08:41:04.128Z,2.53
2018-07-26T08:41:37.128Z,2.70
2018-07-26T08:42:10.184Z,2.67
2018-07-26T08:42:43.214Z,2.60
2018-07-26T08:43:16.244Z,2.70
2018-07-26T08:43:49.289Z,2.70
2018-07-26T08:44:22.360Z,2.70
2018-07-26T08:44:55.412Z,2.93
2018-07-26T08:45:28.441Z,2.80
2018-07-26T08:46:01.500Z,2.73
2018-07-26T08:46:34.539Z,2.60
2018-07-26T08:47:07.585Z,3.03
2018-07-26T08:47:41.403Z,2.73
2018-07-26T08:48:14.500Z,2.63
2018-07-26T08:48:48.287Z,2.90
2018-07-26T08:49:21.326Z,2.80
2018-07-26T08:49:55.109Z,2.70
2018-07-26T08:50:28.908Z,2.63
2018-07-26T08:51:02.723Z,2.73
2018-07-26T08:51:35.791Z,2.70
2018-07-26T08:52:08.847Z,2.80
2018-07-26T08:52:41.866Z,2.63
2018-07-26T08:53:14.934Z,2.60
2018-07-26T08:53:48.010Z,2.53
2018-07-26T08:54:21.870Z,2.90
2018-07-26T08:54:54.847Z,2.73
2018-07-26T08:55:28.698Z,2.80
2018-07-26T08:56:02.529Z,2.70
2018-07-26T08:56:36.326Z,2.90
2018-07-26T08:57:10.124Z,2.97
2018-07-26T08:57:43.167Z,2.70
2018-07-26T08:58:16.214Z,3.00
2018-07-26T08:58:49.258Z,2.70
2018-07-26T08:59:22.304Z,2.60
2018-07-26T08:59:56.111Z,2.60
2018-07-26T09:00:29.900Z,2.60
2018-07-26T09:01:03.742Z,2.60
2018-07-26T09:01:37.557Z,2.60
2018-07-26T09:02:10.596Z,2.63
2018-07-26T09:02:43.726Z,2.43
2018-07-26T09:03:16.725Z,2.60
2018-07-26T09:03:50.525Z,2.77
2018-07-26T09:04:23.597Z,2.87
2018-07-26T09:04:56.634Z,2.50
2018-07-26T09:05:29.668Z,2.50
2018-07-26T09:06:02.713Z,2.30
2018-07-26T09:06:36.536Z,2.10
2018-07-26T09:07:09.588Z,2.73
2018-07-26T09:07:43.404Z,2.70
2018-07-26T09:08:16.441Z,2.60
2018-07-26T09:08:50.248Z,2.50
2018-07-26T09:09:24.059Z,2.73
2018-07-26T09:09:57.130Z,2.40
2018-07-26T09:10:30.137Z,2.40
2018-07-26T09:11:03.266Z,2.57
2018-07-26T09:11:36.256Z,2.50
2018-07-26T09:12:10.031Z,2.60
2018-07-26T09:12:43.085Z,2.63
2018-07-26T09:13:16.917Z,2.57
2018-07-26T09:13:50.008Z,2.37
2018-07-26T09:14:23.021Z,2.37
2018-07-26T09:14:56.049Z,2.40
2018-07-26T09:15:29.085Z,2.13
2018-07-26T09:16:02.892Z,2.20
2018-07-26T09:16:35.929Z,2.63
2018-07-26T09:17:08.991Z,2.60
2018-07-26T09:17:42.004Z,2.80
2018-07-26T09:18:15.041Z,2.50
2018-07-26T09:18:48.105Z,2.80
2018-07-26T09:19:21.139Z,2.60
2018-07-26T09:19:54.180Z,2.60
2018-07-26T09:20:27.220Z,2.40
2018-07-26T09:21:00.313Z,2.60
2018-07-26T09:21:33.352Z,2.70
2018-07-26T09:22:06.396Z,3.13
2018-07-26T09:22:40.188Z,2.80
2018-07-26T09:23:13.979Z,3.00
2018-07-26T09:23:47.802Z,2.87
2018-07-26T09:24:20.889Z,2.70
2018-07-26T09:24:53.888Z,2.50
2018-07-26T09:25:26.957Z,2.67
2018-07-26T09:26:00.016Z,2.13
2018-07-26T09:26:33.812Z,2.20
2018-07-26T09:27:06.854Z,2.03
2018-07-26T09:27:39.899Z,2.13
2018-07-26T09:28:12.919Z,2.37
2018-07-26T09:28:45.978Z,2.60
2018-07-26T09:29:19.793Z,2.17
2018-07-26T09:29:52.843Z,2.33
2018-07-26T09:30:25.880Z,2.17
2018-07-26T09:30:58.916Z,2.60
2018-07-26T09:31:32.032Z,2.33
2018-07-26T09:32:05.076Z,2.40
2018-07-26T09:32:38.110Z,2.83
2018-07-26T09:33:11.939Z,2.27
2018-07-26T09:33:44.957Z,2.40
2018-07-26T09:34:18.020Z,2.40
2018-07-26T09:34:51.084Z,2.20
2018-07-26T09:35:24.144Z,2.40
2018-07-26T09:35:57.180Z,2.10
2018-07-26T09:36:30.984Z,2.17
2018-07-26T09:37:04.034Z,2.23
2018-07-26T09:37:37.058Z,2.47
2018-07-26T09:38:10.112Z,2.10
2018-07-26T09:38:43.951Z,2.20
2018-07-26T09:39:17.003Z,2.10
2018-07-26T09:39:50.032Z,2.87
2018-07-26T09:40:23.827Z,2.60
2018-07-26T09:40:57.668Z,1.93
2018-07-26T09:41:30.693Z,2.20
2018-07-26T09:42:04.489Z,2.60
2018-07-26T09:42:38.295Z,2.50
2018-07-26T09:43:11.355Z,2.10
2018-07-26T09:43:45.155Z,2.07
2018-07-26T09:44:18.994Z,2.40
2018-07-26T09:44:52.030Z,2.60
2018-07-26T09:45:25.074Z,2.23
2018-07-26T09:45:58.104Z,2.20
2018-07-26T09:46:31.129Z,2.10
2018-07-26T09:47:04.945Z,2.30
2018-07-26T09:47:38.007Z,2.40
2018-07-26T09:48:11.794Z,1.93
2018-07-26T09:48:45.611Z,2.37
2018-07-26T09:49:18.686Z,2.47
2018-07-26T09:49:51.764Z,2.03
2018-07-26T09:50:25.544Z,2.20
2018-07-26T09:50:58.590Z,2.20
2018-07-26T09:51:31.627Z,1.93
2018-07-26T09:52:04.677Z,1.90
2018-07-26T09:52:37.712Z,2.30
2018-07-26T09:53:10.773Z,2.10
2018-07-26T09:53:43.815Z,2.00
2018-07-26T09:54:16.900Z,2.37
2018-07-26T09:54:50.008Z,2.70
2018-07-26T09:55:23.044Z,2.23
2018-07-26T09:55:56.096Z,2.10
2018-07-26T09:56:29.162Z,2.27
2018-07-26T09:57:02.976Z,2.50
2018-07-26T09:57:36.009Z,2.30
2018-07-26T09:58:09.047Z,2.33
2018-07-26T09:58:42.087Z,2.40
2018-07-26T09:59:15.914Z,2.80
2018-07-26T09:59:48.950Z,2.10
2018-07-26T10:00:22.773Z,2.60
2018-07-26T10:00:55.798Z,2.20
2018-07-26T10:01:28.836Z,2.00
2018-07-26T10:02:01.857Z,2.10
2018-07-26T10:02:35.663Z,2.30
2018-07-26T10:03:08.708Z,2.30
2018-07-26T10:03:41.747Z,2.27
2018-07-26T10:04:14.820Z,2.40
2018-07-26T10:04:47.856Z,2.43
2018-07-26T10:05:21.661Z,1.97
2018-07-26T10:05:54.707Z,2.50
2018-07-26T10:06:28.540Z,2.80
2018-07-26T10:07:01.605Z,2.20
2018-07-26T10:08:39.704Z,2.10
2018-07-26T10:09:46.058Z,2.25
2018-07-26T10:10:19.878Z,2.10
2018-07-26T10:10:52.920Z,2.20
2018-07-26T10:11:25.961Z,2.30
2018-07-26T10:11:58.996Z,2.20
2018-07-26T10:12:32.030Z,2.10
2018-07-26T10:13:05.827Z,2.40
2018-07-26T10:13:39.619Z,1.93
2018-07-26T10:14:13.453Z,2.40
2018-07-26T10:14:46.489Z,2.57
2018-07-26T10:15:20.292Z,2.97
2018-07-26T10:15:53.386Z,2.25
2018-07-26T10:16:26.376Z,2.77
2018-07-26T10:16:59.420Z,2.27
2018-07-26T10:17:33.223Z,2.17
2018-07-26T10:18:06.313Z,2.20
2018-07-26T10:18:39.347Z,2.40
2018-07-26T10:19:13.158Z,2.10
2018-07-26T10:19:46.207Z,2.30
2018-07-26T10:20:19.316Z,2.20
2018-07-26T10:20:52.284Z,2.30
2018-07-26T10:21:25.321Z,2.43
2018-07-26T10:21:58.365Z,2.30
2018-07-26T10:22:31.404Z,2.40
2018-07-26T10:23:04.448Z,2.00
2018-07-26T10:23:38.256Z,2.25
2018-07-26T10:24:12.063Z,2.10
2018-07-26T10:25:17.625Z,2.00
2018-07-26T10:25:50.673Z,2.13
2018-07-26T10:26:23.701Z,2.07
2018-07-26T10:26:56.735Z,2.47
2018-07-26T10:27:29.775Z,2.30
2018-07-26T10:28:03.571Z,2.17
2018-07-26T10:28:37.389Z,2.23
2018-07-26T10:29:10.419Z,2.50
2018-07-26T10:29:43.486Z,2.27
2018-07-26T10:30:16.511Z,2.20
2018-07-26T10:30:49.545Z,2.00
2018-07-26T10:31:22.584Z,2.30
2018-07-26T10:31:55.657Z,2.20
2018-07-26T10:32:28.687Z,1.93
2018-07-26T10:33:02.507Z,2.47
2018-07-26T10:33:35.549Z,2.30
2018-07-26T10:34:08.589Z,2.30
2018-07-26T10:34:41.641Z,2.20
2018-07-26T10:35:14.703Z,2.17
2018-07-26T10:35:48.496Z,2.30
2018-07-26T10:36:21.530Z,2.10
2018-07-26T10:36:54.586Z,2.00
2018-07-26T10:37:27.650Z,2.20
2018-07-26T10:38:00.682Z,2.20
2018-07-26T10:38:34.496Z,2.10
2018-07-26T10:39:07.546Z,2.30
2018-07-26T10:39:41.343Z,2.30
2018-07-26T10:40:14.439Z,2.20
2018-07-26T10:40:47.411Z,2.33
2018-07-26T10:41:20.460Z,2.40
2018-07-26T10:41:54.246Z,2.33
2018-07-26T10:42:28.057Z,2.50
2018-07-26T10:43:01.116Z,2.20
2018-07-26T10:43:34.921Z,2.40
2018-07-26T10:44:08.727Z,2.20
2018-07-26T10:44:41.832Z,2.03
2018-07-26T10:45:14.871Z,2.17
2018-07-26T10:45:47.900Z,2.10
2018-07-26T10:46:20.977Z,1.93
2018-07-26T10:46:54.024Z,2.00
2018-07-26T10:47:27.078Z,2.50
2018-07-26T10:48:00.119Z,2.60
2018-07-26T10:48:33.917Z,2.30
2018-07-26T10:49:07.733Z,2.17
2018-07-26T10:49:40.811Z,2.43
2018-07-26T10:50:13.928Z,2.00
2018-07-26T10:50:46.966Z,2.07
2018-07-26T10:51:20.009Z,2.17
2018-07-26T10:51:53.825Z,2.27
2018-07-26T10:52:26.862Z,2.63
2018-07-26T10:52:59.898Z,2.40
2018-07-26T10:53:32.955Z,2.20
2018-07-26T10:54:05.971Z,2.53
2018-07-26T10:54:39.027Z,2.10
2018-07-26T10:55:12.073Z,2.20
2018-07-26T10:55:45.128Z,2.20
2018-07-26T10:56:19.003Z,2.00
2018-07-26T10:56:52.049Z,2.77
2018-07-26T10:57:25.072Z,2.30
2018-07-26T10:57:58.899Z,2.40
2018-07-26T10:58:31.956Z,2.33
2018-07-26T10:59:04.998Z,2.10
2018-07-26T10:59:38.058Z,2.20
2018-07-26T11:00:11.109Z,2.40
2018-07-26T11:00:44.157Z,2.30
2018-07-26T11:01:17.945Z,2.03
2018-07-26T11:01:50.980Z,2.13
2018-07-26T11:02:24.032Z,2.33
2018-07-26T11:02:57.064Z,2.13
2018-07-26T11:03:30.208Z,2.30
2018-07-26T11:04:03.272Z,2.07
2018-07-26T11:04:36.321Z,1.97
2018-07-26T11:05:09.361Z,2.40
2018-07-26T11:05:43.149Z,2.20
2018-07-26T11:06:16.956Z,2.00
2018-07-26T11:06:49.995Z,2.30
2018-07-26T11:07:23.054Z,2.17
2018-07-26T11:07:56.119Z,2.20
2018-07-26T11:08:29.148Z,2.43
2018-07-26T11:09:02.981Z,2.27
2018-07-26T11:09:36.054Z,2.20
2018-07-26T11:10:09.109Z,2.50
2018-07-26T11:10:42.160Z,2.10
2018-07-26T11:11:15.980Z,2.27
2018-07-26T11:11:49.016Z,2.40
2018-07-26T11:12:22.052Z,2.60
2018-07-26T11:12:55.103Z,2.40
2018-07-26T11:13:28.143Z,2.17
2018-07-26T11:14:01.181Z,2.57
2018-07-26T11:14:34.234Z,2.40
2018-07-26T11:15:07.303Z,2.40
2018-07-26T11:15:40.342Z,2.70
2018-07-26T11:16:13.395Z,2.50
2018-07-26T11:16:46.426Z,2.20
2018-07-26T11:17:19.459Z,2.90
2018-07-26T11:17:52.498Z,2.40
2018-07-26T11:18:25.557Z,2.50
2018-07-26T11:18:58.671Z,1.90
2018-07-26T11:19:32.429Z,2.53
2018-07-26T11:20:05.477Z,2.40
2018-07-26T11:20:39.296Z,2.27
2018-07-26T11:21:12.331Z,2.20
2018-07-26T11:21:46.120Z,1.83
2018-07-26T11:22:19.940Z,2.20
2018-07-26T11:22:52.981Z,2.20
2018-07-26T11:23:26.048Z,2.17
2018-07-26T11:23:59.091Z,2.47
2018-07-26T11:24:32.169Z,2.10
2018-07-26T11:25:05.186Z,1.80
2018-07-26T11:25:39.044Z,2.30
2018-07-26T11:26:12.045Z,2.00
2018-07-26T11:26:45.080Z,1.90
2018-07-26T11:27:18.792Z,2.27
2018-07-26T11:27:51.848Z,2.33
2018-07-26T11:28:24.904Z,2.07
2018-07-26T11:28:57.950Z,1.97
2018-07-26T11:29:31.772Z,2.10
2018-07-26T11:30:04.850Z,1.80
2018-07-26T11:30:38.608Z,2.10
2018-07-26T11:31:12.424Z,2.00
2018-07-26T11:31:45.476Z,2.30
2018-07-26T11:32:19.350Z,2.17
2018-07-26T11:32:52.360Z,2.23
2018-07-26T11:33:25.404Z,2.07
2018-07-26T11:33:58.461Z,2.10
2018-07-26T11:34:31.492Z,1.90
2018-07-26T11:35:04.556Z,1.70
2018-07-26T11:35:38.373Z,1.93
2018-07-26T11:36:11.421Z,1.80
2018-07-26T11:36:45.233Z,2.00
2018-07-26T11:37:18.285Z,1.73
2018-07-26T11:37:52.172Z,2.17
2018-07-26T11:38:25.166Z,2.07
2018-07-26T11:38:58.210Z,1.80
2018-07-26T11:39:31.248Z,1.80
2018-07-26T11:40:04.310Z,2.20
2018-07-26T11:40:37.360Z,2.40
2018-07-26T11:41:11.203Z,2.10
2018-07-26T11:41:44.248Z,1.90
2018-07-26T11:42:17.277Z,2.20
2018-07-26T11:42:50.314Z,2.00
2018-07-26T11:43:23.344Z,2.00
2018-07-26T11:43:57.154Z,1.93
2018-07-26T11:44:30.215Z,1.63
2018-07-26T11:45:04.041Z,1.97
2018-07-26T11:45:37.103Z,1.90
2018-07-26T11:46:10.127Z,1.87
2018-07-26T11:46:43.196Z,2.00
2018-07-26T11:47:16.216Z,2.07
2018-07-26T11:47:49.249Z,2.00
2018-07-26T11:48:22.299Z,2.20
2018-07-26T11:48:55.338Z,1.90
2018-07-26T11:49:28.383Z,2.30
2018-07-26T11:50:02.989Z,2.33
2018-07-26T11:50:36.000Z,1.77
2018-07-26T11:51:09.796Z,2.20
2018-07-26T11:51:42.839Z,2.20
2018-07-26T11:52:16.652Z,2.00
2018-07-26T11:52:50.468Z,2.10
2018-07-26T11:53:24.248Z,2.50
2018-07-26T11:53:57.309Z,2.10
2018-07-26T11:54:31.095Z,2.17
2018-07-26T11:55:04.920Z,1.67
2018-07-26T11:55:37.969Z,2.03
2018-07-26T11:56:11.762Z,2.10
2018-07-26T11:56:45.583Z,2.20
2018-07-26T11:57:19.369Z,2.07
2018-07-26T11:57:52.405Z,2.30
2018-07-26T11:58:25.428Z,2.20
2018-07-26T11:58:58.468Z,2.20
2018-07-26T11:59:32.283Z,2.23
2018-07-26T12:00:05.378Z,2.23
2018-07-26T12:00:39.305Z,2.37
2018-07-26T12:01:12.352Z,2.27
2018-07-26T12:01:45.426Z,1.97
2018-07-26T12:02:18.405Z,2.57
2018-07-26T12:02:51.417Z,1.93
2018-07-26T12:03:24.455Z,1.80
2018-07-26T12:03:57.497Z,1.83
2018-07-26T12:04:30.524Z,2.00
2018-07-26T12:05:03.576Z,2.20
2018-07-26T12:05:36.632Z,2.40
2018-07-26T12:06:09.676Z,2.33
2018-07-26T12:06:43.467Z,2.13
2018-07-26T12:07:17.273Z,2.20
2018-07-26T12:07:50.296Z,2.10
2018-07-26T12:08:23.353Z,1.90
2018-07-26T12:08:56.384Z,1.77
2018-07-26T12:09:30.180Z,1.87
2018-07-26T12:10:03.979Z,2.00
2018-07-26T12:10:37.012Z,1.60
2018-07-26T12:11:10.052Z,2.30
2018-07-26T12:11:43.093Z,2.17
2018-07-26T12:12:16.923Z,2.00
2018-07-26T12:12:49.945Z,2.10
2018-07-26T12:13:23.013Z,2.33
2018-07-26T12:13:56.062Z,1.93
2018-07-26T12:14:29.174Z,2.30
2018-07-26T12:15:02.898Z,2.30
2018-07-26T12:15:35.920Z,1.90
2018-07-26T12:16:08.984Z,2.43
2018-07-26T12:16:42.028Z,2.20
2018-07-26T12:17:15.055Z,2.20
2018-07-26T12:17:48.136Z,1.77
2018-07-26T12:18:21.145Z,1.90
2018-07-26T12:18:54.200Z,2.20
2018-07-26T12:19:28.000Z,1.90
2018-07-26T12:20:01.793Z,2.10
2018-07-26T12:20:35.637Z,2.33
2018-07-26T12:21:08.688Z,1.83
2018-07-26T12:21:41.732Z,2.20
2018-07-26T12:22:15.527Z,2.70
2018-07-26T12:22:49.358Z,2.00
2018-07-26T12:23:22.415Z,2.07
2018-07-26T12:23:55.444Z,1.80
2018-07-26T12:24:28.475Z,2.43
2018-07-26T12:25:01.558Z,2.27
2018-07-26T12:25:34.588Z,1.90
2018-07-26T12:26:08.404Z,1.87
2018-07-26T12:26:41.484Z,2.07
2018-07-26T12:27:14.484Z,2.20
2018-07-26T12:27:47.525Z,1.97
2018-07-26T12:28:20.561Z,1.83
2018-07-26T12:28:53.614Z,1.90
2018-07-26T12:29:26.638Z,1.80
2018-07-26T12:30:00.456Z,2.17
2018-07-26T12:30:33.525Z,2.13
2018-07-26T12:31:07.300Z,2.40
2018-07-26T12:31:41.127Z,2.20
2018-07-26T12:32:14.135Z,2.10
2018-07-26T12:32:47.582Z,2.20
2018-07-26T12:33:20.616Z,1.90
2018-07-26T12:33:54.404Z,1.80
2018-07-26T12:34:28.215Z,2.30
2018-07-26T12:35:01.265Z,2.10
2018-07-26T12:35:34.328Z,2.10
2018-07-26T12:36:07.374Z,2.10
2018-07-26T12:36:40.415Z,1.80
2018-07-26T12:37:14.208Z,2.13
2018-07-26T12:37:47.276Z,1.87
2018-07-26T12:38:21.115Z,1.90
2018-07-26T12:38:54.152Z,1.80
2018-07-26T12:39:27.175Z,2.33
2018-07-26T12:40:00.216Z,1.90
2018-07-26T12:40:33.277Z,1.90
2018-07-26T12:41:06.333Z,2.30
2018-07-26T12:41:39.352Z,1.87
2018-07-26T12:42:12.384Z,1.90
2018-07-26T12:42:46.203Z,1.87
2018-07-26T12:43:19.253Z,2.50
2018-07-26T12:43:53.064Z,1.90
2018-07-26T12:44:26.100Z,1.90
2018-07-26T12:44:59.893Z,2.00
2018-07-26T12:45:32.953Z,1.80
2018-07-26T12:46:06.045Z,1.90
2018-07-26T12:46:39.079Z,2.17
2018-07-26T12:47:12.133Z,2.33
2018-07-26T12:47:45.190Z,2.20
2018-07-26T12:48:18.249Z,1.97
2018-07-26T12:48:51.289Z,1.93
2018-07-26T12:49:24.327Z,2.13
2018-07-26T12:49:58.167Z,2.30
2018-07-26T12:50:31.210Z,1.80
2018-07-26T12:51:04.268Z,1.97
2018-07-26T12:51:37.309Z,2.20
2018-07-26T12:52:10.377Z,1.80
2018-07-26T12:52:43.412Z,2.07
2018-07-26T12:53:16.468Z,2.10
2018-07-26T12:53:49.500Z,1.83
2018-07-26T12:54:22.552Z,1.70
2018-07-26T12:54:55.649Z,1.90
2018-07-26T12:55:28.648Z,1.90
2018-07-26T12:56:01.768Z,2.07
2018-07-26T12:56:34.809Z,1.60
2018-07-26T12:57:08.607Z,1.90
2018-07-26T12:57:41.639Z,1.60
2018-07-26T12:58:14.679Z,2.07
2018-07-26T12:58:47.768Z,1.80
2018-07-26T12:59:20.796Z,1.80
2018-07-26T12:59:54.627Z,1.90
2018-07-26T13:00:27.661Z,1.40
2018-07-26T13:01:01.488Z,1.70
2018-07-26T13:01:34.545Z,2.00
2018-07-26T13:02:07.588Z,2.20
2018-07-26T13:02:40.624Z,1.77
2018-07-26T13:03:13.668Z,1.73
2018-07-26T13:03:46.720Z,2.07
2018-07-26T13:04:20.516Z,2.10
2018-07-26T13:04:54.320Z,1.80
2018-07-26T13:05:28.146Z,2.07
2018-07-26T13:06:01.199Z,2.10
2018-07-26T13:06:34.236Z,1.77
2018-07-26T13:07:07.326Z,1.70